Khasab Air Base


Codes: OOKB/KHS
Name: Khasab Air Base
City: Khasab
Country: Oman
Elevation: 100 ft.
Wikipedia:

Photos at Khasab Air Base


   Photos courtesy of SpottingLog. You can add your own sightings and photos by signing up for a free trial today.



No photos found.

Weather at Khasab Air Base


Time (UTC)DescriptionTempratureWindCloud coverageVisibilityPressureHumidity
19-Apr-2024 06:00Clear Sky26°C4 mph, NW0%10000m1011hPa54%
19-Apr-2024 09:00Clear Sky27°C4 mph, NW0%10000m1010hPa48%
19-Apr-2024 12:00Clear Sky28°C4 mph, NW0%10000m1008hPa44%
19-Apr-2024 15:00Clear Sky27°C2 mph, W0%10000m1009hPa48%
19-Apr-2024 18:00Clear Sky27°C4 mph, SW0%10000m1010hPa49%
19-Apr-2024 21:00Clear Sky26°C2 mph, W0%10000m1009hPa54%
20-Apr-2024 00:00Clear Sky24°C2 mph, E0%10000m1008hPa64%
20-Apr-2024 03:00Clear Sky25°C4 mph, SE0%10000m1010hPa59%
20-Apr-2024 06:00Clear Sky28°C4 mph, NE0%10000m1010hPa46%
20-Apr-2024 09:00Clear Sky29°C4 mph, N0%10000m1009hPa45%
20-Apr-2024 12:00Clear Sky28°C4 mph, NW5%10000m1008hPa47%
20-Apr-2024 15:00Few Clouds27°C4 mph, NW13%10000m1009hPa52%
20-Apr-2024 18:00Clear Sky27°C2 mph, SW7%10000m1010hPa53%
20-Apr-2024 21:00Clear Sky26°C2 mph, NW0%10000m1009hPa60%
21-Apr-2024 00:00Clear Sky25°C4 mph, S0%10000m1008hPa60%
21-Apr-2024 03:00Clear Sky26°C2 mph, W0%10000m1010hPa56%
21-Apr-2024 06:00Clear Sky29°C4 mph, N0%10000m1010hPa35%
21-Apr-2024 09:00Clear Sky30°C7 mph, N0%10000m1010hPa37%
21-Apr-2024 12:00Clear Sky30°C4 mph, N0%10000m1009hPa39%
21-Apr-2024 15:00Clear Sky29°C2 mph, NW0%10000m1009hPa43%
21-Apr-2024 18:00Clear Sky28°C2 mph, SW0%10000m1011hPa42%
21-Apr-2024 21:00Overcast Clouds27°C2 mph, NW96%10000m1010hPa50%
22-Apr-2024 00:00Scattered Clouds27°C2 mph, E48%10000m1009hPa50%
22-Apr-2024 03:00Clear Sky28°C2 mph, E1%10000m1010hPa44%
22-Apr-2024 06:00Clear Sky31°C4 mph, NE2%10000m1011hPa36%
22-Apr-2024 09:00Clear Sky32°C4 mph, NW0%10000m1010hPa35%
22-Apr-2024 12:00Clear Sky32°C4 mph, NW1%10000m1009hPa34%
22-Apr-2024 15:00Clear Sky30°C4 mph, W8%10000m1010hPa41%
22-Apr-2024 18:00Scattered Clouds31°C4 mph, S28%10000m1009hPa42%
22-Apr-2024 21:00Clear Sky29°C4 mph, SW4%10000m1008hPa50%
23-Apr-2024 00:00Clear Sky29°C7 mph, SE2%10000m1007hPa44%
23-Apr-2024 03:00Clear Sky30°C4 mph, SE4%10000m1009hPa40%
23-Apr-2024 06:00Clear Sky33°C4 mph, NW10%10000m1009hPa32%
23-Apr-2024 09:00Clear Sky34°C2 mph, NW2%10000m1007hPa31%
23-Apr-2024 12:00Scattered Clouds32°C9 mph, NW50%10000m1007hPa34%
23-Apr-2024 15:00Light Rain30°C2 mph, S100%10000m1007hPa42%
23-Apr-2024 18:00Broken Clouds30°C7 mph, S64%10000m1007hPa42%
23-Apr-2024 21:00Scattered Clouds27°C7 mph, SW27%10000m1007hPa53%
24-Apr-2024 00:00Few Clouds26°C7 mph, SW15%10000m1006hPa58%
24-Apr-2024 03:00Clear Sky26°C7 mph, SW0%10000m1007hPa59%